Time;durP1;ratioP1;P1;durP2;ratioP2;P2;SDS_P1;SDS_P2;PMS_P1;PMS_P2;Temp;Humidity;BMP_temperature;BMP_pressure;BME280_temperature;BME280_humidity;BME280_pressure;Samples;Min_cycle;Max_cycle;Signal;HPM_P1;HPM_P2
2024/01/06 00:03:38;;;;;;;5.40;1.90;;;;;;;6.40;84.37;98021.41;7206213;40;20380;31
2024/01/06 00:09:13;;;;;;;5.40;1.80;;;;;;;6.38;84.63;98011.87;7276340;39;20359;31
2024/01/06 00:14:49;;;;;;;5.67;2.10;;;;;;;6.34;84.46;98022.94;7205467;40;20250;31
2024/01/06 00:20:26;;;;;;;5.30;1.70;;;;;;;6.30;84.18;98018.91;7237100;40;20249;31
2024/01/06 00:26:03;;;;;;;3.23;1.57;;;;;;;6.22;85.20;98016.25;7174531;40;20329;31
2024/01/06 00:31:21;;;;;;;3.93;1.80;;;;;;;6.29;85.04;98024.44;7146611;40;20275;31
2024/01/06 00:42:01;;;;;;;6.03;2.10;;;;;;;6.28;84.16;97999.50;7231728;40;20714;31
2024/01/06 00:47:36;;;;;;;5.00;1.67;;;;;;;6.30;85.54;98002.88;7217413;40;20254;31
2024/01/06 00:53:12;;;;;;;6.30;2.20;;;;;;;6.28;84.46;97996.00;7235105;40;20249;31
2024/01/06 00:58:47;;;;;;;3.83;1.80;;;;;;;6.29;84.98;98003.87;7218695;40;20246;31
2024/01/06 01:04:08;;;;;;;3.80;1.55;;;;;;;6.35;85.11;98002.34;7179473;40;20262;31
2024/01/06 01:09:28;;;;;;;4.00;1.70;;;;;;;6.32;85.24;98002.69;7202064;40;20471;31
2024/01/06 01:15:04;;;;;;;11.80;3.67;;;;;;;6.29;85.13;98003.87;7228526;40;20238;31
2024/01/06 01:20:24;;;;;;;5.00;1.80;;;;;;;6.34;84.61;98025.59;7238349;40;20381;31
2024/01/06 01:25:58;;;;;;;5.40;1.93;;;;;;;6.33;84.70;98031.12;7246256;40;20249;31
2024/01/06 01:31:35;;;;;;;5.20;2.10;;;;;;;6.23;84.90;98035.81;7196926;40;20349;31
2024/01/06 01:36:55;;;;;;;6.23;2.10;;;;;;;6.23;85.82;98041.97;7192823;40;20377;31
2024/01/06 01:42:29;;;;;;;4.50;2.15;;;;;;;6.26;85.08;98052.38;7257553;40;20252;31
2024/01/06 01:48:06;;;;;;;6.93;2.20;;;;;;;6.24;85.16;98059.72;7266015;39;20596;31
2024/01/06 01:53:41;;;;;;;7.33;2.03;;;;;;;6.30;84.38;98064.41;7244878;40;21314;31
2024/01/06 01:59:16;;;;;;;6.20;1.90;;;;;;;6.22;85.50;98067.09;7177823;40;20265;31
2024/01/06 02:04:53;;;;;;;5.15;2.00;;;;;;;6.23;85.30;98068.75;7166671;40;20246;31
2024/01/06 02:10:29;;;;;;;5.35;2.40;;;;;;;6.24;84.92;98086.47;7224454;40;20260;31
2024/01/06 02:15:49;;;;;;;6.50;2.00;;;;;;;6.20;85.46;98084.28;7246297;40;20260;31
2024/01/06 02:21:24;;;;;;;5.10;2.10;;;;;;;6.19;84.74;98082.59;7261868;40;20229;31
2024/01/06 02:27:00;;;;;;;4.40;2.10;;;;;;;6.15;84.66;98086.63;7187395;40;20383;31
2024/01/06 02:32:36;;;;;;;8.40;2.25;;;;;;;6.15;84.95;98089.31;7190715;40;20263;31
2024/01/06 02:38:11;;;;;;;6.40;2.70;;;;;;;6.04;84.87;98103.84;7183700;40;20388;31
2024/01/06 02:43:47;;;;;;;3.07;2.00;;;;;;;6.05;84.70;98105.53;7201611;40;20345;31
2024/01/06 02:49:23;;;;;;;4.55;2.50;;;;;;;6.04;85.00;98111.88;7212515;40;20258;31
2024/01/06 02:54:44;;;;;;;4.05;1.90;;;;;;;6.03;85.34;98120.91;7235093;40;20260;31
2024/01/06 03:06:20;;;;;;;5.93;1.80;;;;;;;6.08;84.86;98134.63;7259430;40;20255;31
2024/01/06 03:11:55;;;;;;;3.30;1.97;;;;;;;6.14;84.92;98139.28;7224685;40;20238;31
2024/01/06 03:17:12;;;;;;;4.67;2.00;;;;;;;6.22;85.01;98158.06;7246961;40;21286;31
2024/01/06 03:22:49;;;;;;;4.50;2.35;;;;;;;6.15;85.38;98154.34;7241144;40;20456;31
2024/01/06 03:28:24;;;;;;;2.95;1.85;;;;;;;6.05;85.08;98150.16;7250118;40;20468;31
2024/01/06 03:33:45;;;;;;;5.30;2.20;;;;;;;5.99;85.51;98153.47;7234263;40;20247;31
2024/01/06 03:39:21;;;;;;;4.60;2.27;;;;;;;5.92;85.76;98131.91;7302560;39;20245;31
2024/01/06 03:44:53;;;;;;;6.50;2.00;;;;;;;5.95;85.40;98125.37;7270444;40;21257;31
2024/01/06 03:50:29;;;;;;;4.23;2.10;;;;;;;5.96;86.78;98135.94;7196618;40;20385;31
2024/01/06 03:56:05;;;;;;;3.80;1.90;;;;;;;5.95;86.72;98136.94;7117812;40;20270;31
2024/01/06 04:01:28;;;;;;;6.30;1.80;;;;;;;5.99;86.67;98140.09;7177442;40;20262;31
2024/01/06 04:06:46;;;;;;;4.47;2.27;;;;;;;5.99;86.63;98140.94;7175183;40;20265;31
2024/01/06 04:12:23;;;;;;;3.97;2.20;;;;;;;6.02;86.35;98137.09;7249685;40;20245;31
2024/01/06 04:17:44;;;;;;;4.17;1.90;;;;;;;6.07;86.60;98140.97;7303767;39;20235;31
2024/01/06 04:23:19;;;;;;;4.60;2.30;;;;;;;6.10;86.60;98132.59;7317970;39;20255;31
2024/01/06 04:33:57;;;;;;;4.20;2.00;;;;;;;6.10;86.49;98140.63;7176419;40;21320;31
2024/01/06 04:44:37;;;;;;;5.45;2.20;;;;;;;6.12;86.63;98135.13;7218662;40;20260;31
2024/01/06 04:50:14;;;;;;;3.75;2.30;;;;;;;6.12;85.96;98127.09;7295605;39;20256;31
2024/01/06 05:00:54;;;;;;;3.90;2.00;;;;;;;6.13;85.61;98140.31;7319484;39;20279;31
2024/01/06 05:11:32;;;;;;;3.77;1.97;;;;;;;6.12;85.76;98143.97;7252214;40;20732;31
2024/01/06 05:22:12;;;;;;;3.77;1.90;;;;;;;6.07;86.16;98148.13;7309314;39;20283;31
2024/01/06 05:32:54;;;;;;;6.05;2.15;;;;;;;6.15;86.08;98154.34;7235722;40;20481;31
2024/01/06 05:43:15;;;;;;;5.40;2.20;;;;;;;6.22;86.41;98151.88;7286831;39;21317;31
2024/01/06 05:53:52;;;;;;;4.20;2.30;;;;;;;6.06;86.70;98144.62;7304523;39;21239;31
2024/01/06 06:04:18;;;;;;;4.60;2.10;;;;;;;5.98;86.53;98159.81;7364737;39;20267;31
2024/01/06 06:09:53;;;;;;;5.83;4.20;;;;;;;6.01;87.06;98165.69;7378705;39;20245;31
2024/01/06 06:15:27;;;;;;;3.47;2.47;;;;;;;6.00;87.85;98169.38;7299831;39;20252;31
2024/01/06 06:21:03;;;;;;;6.60;3.00;;;;;;;6.01;87.17;98179.03;7220415;40;20260;31
2024/01/06 06:26:37;;;;;;;3.55;2.60;;;;;;;6.01;87.30;98179.03;7258731;40;20259;31
2024/01/06 06:31:59;;;;;;;4.47;2.70;;;;;;;6.03;88.22;98185.09;7215153;40;20447;31
2024/01/06 06:37:19;;;;;;;4.27;2.53;;;;;;;6.02;88.28;98193.25;7276808;39;20321;31
2024/01/06 06:42:54;;;;;;;4.30;2.30;;;;;;;6.04;88.58;98196.63;7301266;39;20382;31
2024/01/06 06:48:29;;;;;;;4.10;2.30;;;;;;;6.09;87.76;98205.00;7235384;40;20261;31
2024/01/06 06:53:47;;;;;;;12.27;5.43;;;;;;;6.19;88.07;98214.53;6979787;40;20353;31
2024/01/06 07:04:27;;;;;;;3.60;2.70;;;;;;;6.13;88.27;98241.97;7244321;40;20659;31
2024/01/06 07:10:03;;;;;;;4.10;3.40;;;;;;;6.16;87.93;98255.00;7305634;39;20259;31
2024/01/06 07:15:23;;;;;;;4.53;3.53;;;;;;;6.26;88.73;98262.91;7261639;39;20242;31
2024/01/06 07:20:56;;;;;;;6.40;4.00;;;;;;;6.25;87.40;98263.91;7257084;40;20327;31
2024/01/06 07:26:32;;;;;;;3.90;3.10;;;;;;;6.24;87.76;98275.59;7195559;40;20381;31
2024/01/06 07:31:53;;;;;;;6.20;3.70;;;;;;;6.23;87.93;98276.63;7157108;40;20232;31
2024/01/06 07:37:28;;;;;;;5.37;3.37;;;;;;;6.23;88.79;98290.81;7188451;40;20246;31
2024/01/06 07:43:04;;;;;;;6.27;4.03;;;;;;;6.30;88.08;98296.38;7205988;40;20238;31
2024/01/06 07:48:36;;;;;;;3.50;3.00;;;;;;;6.31;89.12;98296.22;7190913;40;20265;31
2024/01/06 07:54:13;;;;;;;5.20;3.20;;;;;;;6.29;88.04;98292.84;7166686;40;20232;31
2024/01/06 07:59:48;;;;;;;4.30;2.97;;;;;;;6.39;88.06;98311.44;7178012;40;20345;31
2024/01/06 08:05:23;;;;;;;3.83;2.70;;;;;;;6.37;87.88;98309.91;7207704;40;20372;31
2024/01/06 08:10:59;;;;;;;4.35;2.95;;;;;;;6.32;88.18;98307.72;7217087;40;20609;31
2024/01/06 08:16:36;;;;;;;4.57;2.70;;;;;;;6.33;88.28;98320.97;7197129;40;20258;31
2024/01/06 08:21:55;;;;;;;14.67;9.57;;;;;;;6.36;88.42;98325.16;7183198;40;20266;31
2024/01/06 08:32:31;;;;;;;7.70;5.15;;;;;;;6.36;88.96;98332.34;7245978;40;21441;31
2024/01/06 08:37:48;;;;;;;5.55;4.00;;;;;;;6.43;88.98;98341.41;7256725;39;21367;31
2024/01/06 08:43:23;;;;;;;3.30;2.80;;;;;;;6.41;88.44;98352.25;7243508;40;20230;31
2024/01/06 08:48:58;;;;;;;7.30;6.40;;;;;;;6.41;88.74;98354.94;7217830;40;20387;31
2024/01/06 08:54:34;;;;;;;4.40;4.00;;;;;;;6.43;88.68;98352.94;7176462;40;20238;31
2024/01/06 09:00:10;;;;;;;8.70;6.30;;;;;;;6.48;89.00;98368.53;7206253;40;20235;31
2024/01/06 09:05:47;;;;;;;4.97;3.80;;;;;;;6.43;89.00;98363.66;7215673;40;20259;31
2024/01/06 09:11:22;;;;;;;4.80;3.20;;;;;;;6.46;89.12;98370.50;7163588;40;20262;31
2024/01/06 09:16:42;;;;;;;2.90;2.57;;;;;;;6.45;89.19;98382.25;7221852;40;20246;31
2024/01/06 09:22:16;;;;;;;3.67;2.20;;;;;;;6.44;89.67;98370.69;7225252;40;20257;31
2024/01/06 09:27:33;;;;;;;3.13;2.60;;;;;;;6.51;89.96;98384.25;7187927;40;20379;31
2024/01/06 09:33:09;;;;;;;2.70;2.40;;;;;;;6.53;89.67;98388.47;7187904;40;20258;31
2024/01/06 09:38:45;;;;;;;3.60;2.70;;;;;;;6.50;88.93;98382.56;7218058;40;20246;31
2024/01/06 09:44:20;;;;;;;3.60;2.80;;;;;;;6.56;90.01;98384.59;7191407;40;20542;31
2024/01/06 09:49:55;;;;;;;4.47;3.40;;;;;;;6.58;89.02;98409.41;7187934;40;20228;31
2024/01/06 09:55:29;;;;;;;8.40;6.20;;;;;;;6.56;89.46;98411.38;7158377;40;20365;31
2024/01/06 10:01:04;;;;;;;15.00;11.30;;;;;;;6.58;90.32;98404.84;7155551;40;20225;31
2024/01/06 10:06:25;;;;;;;5.93;4.70;;;;;;;6.69;89.35;98395.72;7227727;40;20486;31
2024/01/06 10:12:00;;;;;;;4.03;3.30;;;;;;;6.65;89.83;98391.69;7235254;40;20245;31
2024/01/06 10:17:20;;;;;;;3.95;3.55;;;;;;;6.67;90.00;98395.03;7216469;40;20238;31
2024/01/06 10:22:53;;;;;;;5.30;3.30;;;;;;;6.68;89.46;98386.84;7229267;40;20399;31
2024/01/06 10:28:29;;;;;;;5.50;4.30;;;;;;;6.66;90.70;98377.28;7218082;40;20308;31
2024/01/06 10:34:04;;;;;;;9.07;7.07;;;;;;;6.64;90.65;98387.31;7234568;40;20237;31
2024/01/06 10:39:39;;;;;;;6.40;4.00;;;;;;;6.63;90.41;98380.28;7216207;40;20413;31
2024/01/06 10:45:16;;;;;;;5.50;3.90;;;;;;;6.65;90.79;98378.28;7226536;40;20301;31
2024/01/06 10:50:51;;;;;;;4.50;3.50;;;;;;;6.64;90.95;98373.94;7227436;40;20340;31
2024/01/06 10:56:26;;;;;;;6.30;4.00;;;;;;;6.71;91.58;98377.66;7248816;39;20371;31
2024/01/06 11:02:03;;;;;;;4.80;4.00;;;;;;;6.77;90.97;98374.31;7165592;40;20254;31
2024/01/06 11:07:37;;;;;;;4.25;3.75;;;;;;;6.82;90.73;98363.09;7148065;40;20259;31
2024/01/06 11:13:21;;;;;;;6.10;3.77;;;;;;;6.82;90.88;98366.62;7169511;40;20422;31
2024/01/06 11:18:57;;;;;;;6.75;5.90;;;;;;;6.90;90.99;98368.47;7177005;40;20254;31
2024/01/06 11:24:33;;;;;;;6.60;4.10;;;;;;;6.95;90.04;98367.00;7211366;40;20266;31
2024/01/06 11:30:08;;;;;;;3.83;3.40;;;;;;;6.95;90.25;98364.31;7227866;40;20243;31
2024/01/06 11:35:49;;;;;;;5.20;4.00;;;;;;;6.98;90.86;98371.16;7208840;40;20266;31
2024/01/06 11:41:04;;;;;;;4.90;3.50;;;;;;;7.07;89.99;98367.50;7247883;40;20266;31
2024/01/06 11:46:52;;;;;;;4.75;3.25;;;;;;;7.08;89.42;98380.75;7272018;39;20253;31
2024/01/06 11:57:29;;;;;;;3.50;3.10;;;;;;;7.12;89.95;98368.69;7195653;40;21460;31
2024/01/06 12:03:04;;;;;;;5.70;3.77;;;;;;;7.17;89.04;98373.56;7156058;40;20263;31
2024/01/06 12:08:24;;;;;;;4.25;3.15;;;;;;;7.19;89.18;98377.78;7149953;40;20249;31
2024/01/06 12:13:57;;;;;;;4.23;3.20;;;;;;;7.16;88.58;98363.84;7179669;40;20231;31
2024/01/06 12:24:33;;;;;;;3.55;3.20;;;;;;;7.22;89.35;98355.16;7229071;40;21492;31
2024/01/06 12:30:07;;;;;;;3.83;3.00;;;;;;;7.22;88.32;98349.78;7193329;40;20270;31
2024/01/06 12:35:42;;;;;;;4.67;3.30;;;;;;;7.24;88.94;98353.97;7248556;39;20269;31
2024/01/06 12:41:02;;;;;;;5.93;4.47;;;;;;;7.32;87.94;98360.34;7181624;40;20260;31
2024/01/06 12:46:33;;;;;;;4.00;3.60;;;;;;;7.25;87.74;98365.53;7174301;40;20304;31
2024/01/06 12:52:08;;;;;;;4.40;3.75;;;;;;;7.22;89.04;98371.22;7200692;40;20329;31
2024/01/06 12:57:44;;;;;;;3.75;3.35;;;;;;;7.30;88.21;98370.37;7225100;40;20372;31
2024/01/06 13:03:16;;;;;;;4.70;3.40;;;;;;;7.30;88.28;98363.19;7244834;40;20558;31
2024/01/06 13:13:41;;;;;;;3.80;3.50;;;;;;;7.38;87.70;98365.88;7246215;40;21527;31
2024/01/06 13:19:16;;;;;;;4.65;3.40;;;;;;;7.41;87.74;98368.22;7262322;39;20251;31
2024/01/06 13:24:51;;;;;;;3.80;3.10;;;;;;;7.37;87.91;98374.09;7243231;40;20251;31
2024/01/06 13:30:25;;;;;;;3.83;2.97;;;;;;;7.41;87.71;98388.84;7072163;40;21353;31
2024/01/06 13:35:57;;;;;;;4.77;3.47;;;;;;;7.40;87.34;98388.00;7245559;39;20256;31
2024/01/06 13:41:29;;;;;;;5.30;3.60;;;;;;;7.43;87.87;98381.44;7237619;40;20242;31
2024/01/06 13:47:04;;;;;;;4.10;2.90;;;;;;;7.46;87.40;98397.22;7196455;40;20445;31
2024/01/06 13:52:40;;;;;;;5.20;3.13;;;;;;;7.50;87.44;98391.34;7186161;40;20410;31
2024/01/06 13:58:01;;;;;;;3.20;2.90;;;;;;;7.57;87.37;98396.88;7136138;40;20335;31
2024/01/06 14:03:36;;;;;;;3.40;2.90;;;;;;;7.56;87.98;98400.56;7151105;40;20250;31
2024/01/06 14:09:08;;;;;;;3.20;2.90;;;;;;;7.53;87.74;98400.91;7243192;40;20281;31
2024/01/06 14:14:24;;;;;;;5.60;3.65;;;;;;;7.52;86.93;98415.31;7245849;40;20509;31
2024/01/06 14:19:56;;;;;;;8.37;6.00;;;;;;;7.50;87.85;98409.28;7249909;40;20618;31
2024/01/06 14:30:34;;;;;;;5.60;3.80;;;;;;;7.50;87.58;98417.34;7231789;40;21460;31
2024/01/06 14:41:10;;;;;;;9.23;5.67;;;;;;;7.55;87.71;98415.81;7262132;39;21425;31
2024/01/06 14:46:42;;;;;;;9.37;7.37;;;;;;;7.55;87.41;98425.69;7214802;40;20351;31
2024/01/06 14:52:18;;;;;;;17.20;12.55;;;;;;;7.54;86.67;98424.88;7204432;40;20246;31
2024/01/06 14:57:38;;;;;;;12.50;8.67;;;;;;;7.53;86.57;98425.88;7196799;40;20392;31
2024/01/06 15:03:17;;;;;;;9.10;7.30;;;;;;;7.51;86.81;98438.59;7204024;40;20245;31
2024/01/06 15:08:36;;;;;;;17.37;12.17;;;;;;;7.54;86.75;98445.50;7215359;40;20479;31
2024/01/06 15:19:17;;;;;;;4.60;4.20;;;;;;;7.53;86.75;98452.69;7260943;40;20260;31
2024/01/06 15:24:37;;;;;;;3.90;2.95;;;;;;;7.54;87.01;98451.69;7223724;39;20377;31
2024/01/06 15:29:57;;;;;;;7.30;6.30;;;;;;;7.55;87.69;98460.56;7251695;40;20428;31
2024/01/06 15:35:32;;;;;;;9.80;7.00;;;;;;;7.52;86.93;98463.56;7256187;40;20472;31
2024/01/06 15:40:52;;;;;;;6.93;5.10;;;;;;;7.56;87.27;98471.13;7224006;40;20336;31
2024/01/06 15:46:12;;;;;;;6.20;4.00;;;;;;;7.55;87.14;98471.28;7256837;40;21460;31
2024/01/06 15:51:45;;;;;;;6.40;4.83;;;;;;;7.52;87.36;98480.50;7306835;39;21241;31
2024/01/06 15:57:05;;;;;;;4.53;3.97;;;;;;;7.55;87.36;98484.69;7281132;40;20251;31
2024/01/06 16:02:41;;;;;;;4.53;3.60;;;;;;;7.52;87.24;98479.66;7258097;40;20256;31
2024/01/06 16:13:16;;;;;;;3.80;3.40;;;;;;;7.46;86.91;98491.87;7237887;40;21253;31
2024/01/06 16:18:51;;;;;;;4.37;3.63;;;;;;;7.44;86.88;98485.00;7237756;40;20284;31
2024/01/06 16:24:11;;;;;;;4.03;3.53;;;;;;;7.45;87.79;98489.38;7196974;40;20242;31
2024/01/06 16:29:44;;;;;;;4.97;3.67;;;;;;;7.40;87.51;98483.66;7198752;40;20261;31
2024/01/06 16:35:19;;;;;;;5.45;3.90;;;;;;;7.37;87.94;98490.19;7142203;40;20291;31
2024/01/06 16:45:57;;;;;;;7.00;6.30;;;;;;;7.39;88.46;98484.66;7219598;40;20263;31
2024/01/06 16:51:32;;;;;;;4.60;3.80;;;;;;;7.41;88.37;98501.44;7231289;39;20222;31
2024/01/06 16:57:07;;;;;;;5.40;3.35;;;;;;;7.39;88.66;98495.38;7242584;40;20254;31
2024/01/06 17:02:41;;;;;;;4.20;3.40;;;;;;;7.42;87.75;98500.41;7210110;40;20375;31
2024/01/06 17:08:03;;;;;;;2.83;2.45;;;;;;;7.42;87.64;98508.44;7230262;40;20347;31
2024/01/06 17:13:34;;;;;;;3.00;2.40;;;;;;;7.37;88.40;98502.75;7239520;40;20324;31
2024/01/06 17:19:10;;;;;;;2.50;2.20;;;;;;;7.34;87.81;98503.06;7205155;40;20254;31
2024/01/06 17:24:31;;;;;;;3.67;2.30;;;;;;;7.40;87.68;98507.78;7242058;40;20371;31
2024/01/06 17:30:06;;;;;;;2.90;2.30;;;;;;;7.34;86.68;98503.06;7218908;40;20247;31
2024/01/06 17:35:40;;;;;;;2.87;2.13;;;;;;;7.35;88.38;98508.28;7156464;40;20258;31
2024/01/06 17:41:15;;;;;;;3.55;2.30;;;;;;;7.33;87.90;98521.00;7205617;40;20303;31
2024/01/06 17:46:50;;;;;;;2.97;2.53;;;;;;;7.23;87.87;98525.66;7199797;40;20249;31
2024/01/06 17:52:27;;;;;;;3.50;2.90;;;;;;;7.19;88.18;98538.56;7221337;40;20249;31
2024/01/06 17:57:46;;;;;;;5.22;3.53;;;;;;;7.07;89.03;98553.22;7196814;40;20270;31
2024/01/06 18:03:07;;;;;;;11.80;9.90;;;;;;;6.93;90.73;98551.16;7190487;40;20246;31
2024/01/06 18:08:44;;;;;;;6.00;5.40;;;;;;;6.97;91.19;98560.56;7216794;40;20261;31
2024/01/06 18:14:19;;;;;;;6.80;6.10;;;;;;;6.99;91.58;98563.06;7243874;40;20255;31
2024/01/06 18:19:54;;;;;;;6.90;5.35;;;;;;;6.98;91.52;98572.09;7217159;40;20242;31
2024/01/06 18:25:30;;;;;;;7.23;5.70;;;;;;;6.97;90.91;98560.56;7183786;40;20391;31
2024/01/06 18:30:52;;;;;;;7.77;5.50;;;;;;;6.99;90.65;98573.78;7168551;40;20365;31
2024/01/06 18:36:11;;;;;;;6.55;5.00;;;;;;;6.98;91.13;98561.37;7205898;40;20246;31
2024/01/06 18:41:48;;;;;;;8.53;5.70;;;;;;;6.96;91.20;98569.59;7178801;40;20381;31
2024/01/06 18:47:23;;;;;;;5.80;5.20;;;;;;;6.88;91.60;98569.56;7176869;40;20377;31
2024/01/06 18:52:45;;;;;;;6.63;4.53;;;;;;;6.84;91.97;98570.88;7223978;40;20308;31
2024/01/06 18:58:20;;;;;;;7.27;5.20;;;;;;;6.75;92.55;98572.66;7214031;40;20258;31
2024/01/06 19:03:43;;;;;;;6.50;5.00;;;;;;;6.77;92.66;98567.13;7227101;40;20253;31
2024/01/06 19:08:58;;;;;;;6.00;5.00;;;;;;;6.86;93.37;98582.25;7250234;40;20253;31
2024/01/06 19:14:37;;;;;;;5.77;4.83;;;;;;;6.87;92.85;98586.62;7226812;40;20312;31
2024/01/06 19:19:56;;;;;;;6.60;5.50;;;;;;;6.93;91.72;98591.34;7264329;39;20241;31
2024/01/06 19:25:31;;;;;;;8.15;5.70;;;;;;;6.91;92.47;98589.81;7225945;39;20371;31
2024/01/06 19:31:08;;;;;;;6.55;5.20;;;;;;;6.88;92.53;98596.34;7227326;40;20238;31
2024/01/06 19:36:42;;;;;;;6.80;4.70;;;;;;;6.90;92.47;98599.69;7194769;40;20412;31
2024/01/06 19:42:17;;;;;;;4.80;2.80;;;;;;;6.86;92.03;98606.34;7236757;40;20348;31
2024/01/06 19:47:53;;;;;;;1.97;1.70;;;;;;;6.67;91.82;98601.22;7209150;40;20487;31
2024/01/06 19:53:28;;;;;;;1.35;1.20;;;;;;;6.53;92.97;98609.81;7179426;40;20257;31
2024/01/06 19:58:49;;;;;;;1.40;1.30;;;;;;;6.38;93.12;98609.50;7176779;40;20442;31
2024/01/06 20:04:22;;;;;;;1.57;1.40;;;;;;;6.30;92.53;98612.13;6998425;40;20454;31
2024/01/06 20:09:58;;;;;;;1.60;1.50;;;;;;;6.23;93.45;98611.88;7239883;40;20265;31
2024/01/06 20:15:19;;;;;;;1.85;1.60;;;;;;;6.09;92.99;98625.81;7235584;40;20237;31
2024/01/06 20:20:54;;;;;;;1.65;1.50;;;;;;;6.02;92.77;98621.22;7256605;40;20237;31
2024/01/06 20:26:30;;;;;;;2.00;1.80;;;;;;;6.11;93.42;98625.66;7188994;40;20262;31
2024/01/06 20:31:46;;;;;;;2.60;2.00;;;;;;;6.20;92.59;98627.41;7246081;40;20248;31
2024/01/06 20:37:21;;;;;;;2.97;2.50;;;;;;;6.16;91.61;98618.00;7248731;40;20256;31
2024/01/06 20:42:56;;;;;;;2.80;2.50;;;;;;;6.07;92.20;98633.16;7228025;40;20241;31
2024/01/06 20:48:31;;;;;;;5.40;3.33;;;;;;;6.08;92.09;98626.81;7248182;40;20246;31
2024/01/06 20:54:06;;;;;;;24.05;13.75;;;;;;;6.13;92.36;98629.87;7221812;40;20467;31
2024/01/06 20:59:23;;;;;;;6.47;5.10;;;;;;;6.14;91.15;98620.81;7226485;40;20371;31
2024/01/06 21:04:58;;;;;;;5.10;3.90;;;;;;;6.00;91.75;98629.41;7265989;40;20260;31
2024/01/06 21:10:29;;;;;;;4.77;3.57;;;;;;;5.98;91.75;98625.19;7205609;40;20269;31
2024/01/06 21:15:50;;;;;;;5.10;3.30;;;;;;;6.01;91.44;98627.59;7228357;40;20268;31
2024/01/06 21:21:27;;;;;;;3.77;3.03;;;;;;;5.84;91.28;98623.84;7170126;40;20256;31
2024/01/06 21:27:04;;;;;;;5.37;3.70;;;;;;;5.85;91.34;98620.19;7130352;40;20240;31
2024/01/06 21:32:24;;;;;;;4.80;3.75;;;;;;;5.82;91.74;98621.34;7175077;40;20253;31
2024/01/06 21:37:57;;;;;;;4.57;3.60;;;;;;;5.89;92.59;98626.94;7259547;40;20370;31
2024/01/06 21:43:31;;;;;;;3.87;3.13;;;;;;;5.91;91.07;98633.00;7275306;40;20268;31
2024/01/06 21:48:51;;;;;;;3.93;3.13;;;;;;;5.84;91.21;98638.06;7231882;40;20284;31
2024/01/06 21:54:26;;;;;;;4.43;3.60;;;;;;;5.87;91.91;98636.97;7238813;40;20826;31
2024/01/06 22:05:06;;;;;;;4.45;3.45;;;;;;;5.76;91.32;98643.31;7263549;40;20759;31
2024/01/06 22:10:41;;;;;;;4.55;3.60;;;;;;;5.73;91.53;98640.09;7268112;40;20449;31
2024/01/06 22:16:16;;;;;;;5.03;3.23;;;;;;;5.74;91.98;98650.66;7272816;40;20888;31
2024/01/06 22:21:55;;;;;;;4.20;3.37;;;;;;;5.68;91.98;98639.72;7237676;40;20807;31
2024/01/06 22:27:15;;;;;;;5.27;3.53;;;;;;;5.66;91.84;98647.88;7171479;40;20808;31
2024/01/06 22:32:50;;;;;;;4.60;3.50;;;;;;;5.66;91.24;98653.22;7175433;40;21341;31
2024/01/06 22:38:26;;;;;;;4.33;3.10;;;;;;;5.69;91.95;98649.41;7186942;40;20783;31
2024/01/06 22:43:47;;;;;;;4.40;3.45;;;;;;;5.66;91.57;98650.53;7213313;40;20292;31
2024/01/06 22:49:23;;;;;;;4.65;3.05;;;;;;;5.55;91.94;98644.56;7264656;39;20335;31
2024/01/06 22:55:00;;;;;;;3.90;3.10;;;;;;;5.51;92.52;98653.88;7225357;40;20497;31
2024/01/06 23:05:25;;;;;;;3.65;3.15;;;;;;;5.49;93.16;98658.50;7184450;40;20734;31
2024/01/06 23:16:07;;;;;;;4.00;3.15;;;;;;;5.51;92.23;98665.41;7244848;40;20736;31
2024/01/06 23:21:28;;;;;;;4.00;3.20;;;;;;;5.55;93.00;98665.94;7277672;40;20273;31
2024/01/06 23:27:04;;;;;;;4.83;2.90;;;;;;;5.56;92.50;98673.84;7301292;39;20259;31
2024/01/06 23:47:53;;;;;;;3.67;3.20;;;;;;;5.56;92.56;98675.66;7329226;39;20268;31
2024/01/06 23:58:19;;;;;;;4.17;3.27;;;;;;;5.45;92.72;98682.03;7335989;39;20275;31
